sensor_id;sensor_type;location;lat;lon;timestamp;temperature;humidity
6672;DHT22;3372;48.690;12.362;2022-07-23T00:01:00;25.60;17.70
6672;DHT22;3372;48.690;12.362;2022-07-23T00:03:26;25.60;17.90
6672;DHT22;3372;48.690;12.362;2022-07-23T00:05:51;25.50;17.90
6672;DHT22;3372;48.690;12.362;2022-07-23T00:08:17;25.60;17.90
6672;DHT22;3372;48.690;12.362;2022-07-23T00:10:43;25.60;17.90
6672;DHT22;3372;48.690;12.362;2022-07-23T00:13:09;25.50;18.20
6672;DHT22;3372;48.690;12.362;2022-07-23T00:15:35;25.60;17.90
6672;DHT22;3372;48.690;12.362;2022-07-23T00:18:01;25.60;18.00
6672;DHT22;3372;48.690;12.362;2022-07-23T00:20:26;25.50;18.60
6672;DHT22;3372;48.690;12.362;2022-07-23T00:22:54;25.50;18.30
6672;DHT22;3372;48.690;12.362;2022-07-23T00:25:21;25.60;18.40
6672;DHT22;3372;48.690;12.362;2022-07-23T00:27:47;25.60;18.20
6672;DHT22;3372;48.690;12.362;2022-07-23T00:30:13;25.60;19.00
6672;DHT22;3372;48.690;12.362;2022-07-23T00:32:52;25.60;18.80
6672;DHT22;3372;48.690;12.362;2022-07-23T00:35:21;25.60;19.50
6672;DHT22;3372;48.690;12.362;2022-07-23T00:37:47;25.50;18.70
6672;DHT22;3372;48.690;12.362;2022-07-23T00:40:13;25.20;19.10
6672;DHT22;3372;48.690;12.362;2022-07-23T00:42:39;25.30;18.70
6672;DHT22;3372;48.690;12.362;2022-07-23T00:45:05;25.30;18.50
6672;DHT22;3372;48.690;12.362;2022-07-23T00:47:31;25.40;18.50
6672;DHT22;3372;48.690;12.362;2022-07-23T00:49:56;25.40;18.60
6672;DHT22;3372;48.690;12.362;2022-07-23T00:52:22;25.40;18.60
6672;DHT22;3372;48.690;12.362;2022-07-23T00:54:48;25.30;19.10
6672;DHT22;3372;48.690;12.362;2022-07-23T00:57:14;25.30;18.80
6672;DHT22;3372;48.690;12.362;2022-07-23T00:59:40;25.30;18.90
6672;DHT22;3372;48.690;12.362;2022-07-23T01:02:06;25.30;18.90
6672;DHT22;3372;48.690;12.362;2022-07-23T01:04:32;25.30;19.30
6672;DHT22;3372;48.690;12.362;2022-07-23T01:06:58;25.30;19.60
6672;DHT22;3372;48.690;12.362;2022-07-23T01:09:24;25.30;19.50
6672;DHT22;3372;48.690;12.362;2022-07-23T01:11:50;25.30;19.60
6672;DHT22;3372;48.690;12.362;2022-07-23T01:14:18;25.30;20.00
6672;DHT22;3372;48.690;12.362;2022-07-23T01:16:46;25.20;20.10
6672;DHT22;3372;48.690;12.362;2022-07-23T01:19:13;25.30;19.80
6672;DHT22;3372;48.690;12.362;2022-07-23T01:21:41;25.30;20.20
6672;DHT22;3372;48.690;12.362;2022-07-23T01:24:08;25.40;20.40
6672;DHT22;3372;48.690;12.362;2022-07-23T01:26:34;25.30;19.80
6672;DHT22;3372;48.690;12.362;2022-07-23T01:29:00;25.40;19.70
6672;DHT22;3372;48.690;12.362;2022-07-23T01:31:26;25.40;19.70
6672;DHT22;3372;48.690;12.362;2022-07-23T01:33:52;25.40;20.30
6672;DHT22;3372;48.690;12.362;2022-07-23T01:36:17;25.30;20.20
6672;DHT22;3372;48.690;12.362;2022-07-23T01:38:43;25.30;20.20
6672;DHT22;3372;48.690;12.362;2022-07-23T01:41:08;25.30;20.40
6672;DHT22;3372;48.690;12.362;2022-07-23T01:43:34;25.30;20.60
6672;DHT22;3372;48.690;12.362;2022-07-23T01:46:00;25.30;20.90
6672;DHT22;3372;48.690;12.362;2022-07-23T01:48:25;25.30;20.70
6672;DHT22;3372;48.690;12.362;2022-07-23T01:50:51;25.20;20.60
6672;DHT22;3372;48.690;12.362;2022-07-23T01:53:17;25.30;20.80
6672;DHT22;3372;48.690;12.362;2022-07-23T01:55:42;25.20;21.00
6672;DHT22;3372;48.690;12.362;2022-07-23T01:58:08;25.20;20.60
6672;DHT22;3372;48.690;12.362;2022-07-23T02:00:34;25.30;20.90
6672;DHT22;3372;48.690;12.362;2022-07-23T02:03:00;25.20;21.20
6672;DHT22;3372;48.690;12.362;2022-07-23T02:05:26;25.20;21.20
6672;DHT22;3372;48.690;12.362;2022-07-23T02:07:54;25.30;21.50
6672;DHT22;3372;48.690;12.362;2022-07-23T02:10:21;25.30;21.60
6672;DHT22;3372;48.690;12.362;2022-07-23T02:12:46;25.40;21.00
6672;DHT22;3372;48.690;12.362;2022-07-23T02:15:12;25.30;21.10
6672;DHT22;3372;48.690;12.362;2022-07-23T02:17:38;25.30;21.00
6672;DHT22;3372;48.690;12.362;2022-07-23T02:20:05;25.30;21.00
6672;DHT22;3372;48.690;12.362;2022-07-23T02:22:31;25.20;21.10
6672;DHT22;3372;48.690;12.362;2022-07-23T02:24:56;25.30;20.80
6672;DHT22;3372;48.690;12.362;2022-07-23T02:27:22;25.20;21.20
6672;DHT22;3372;48.690;12.362;2022-07-23T02:29:48;25.30;21.50
6672;DHT22;3372;48.690;12.362;2022-07-23T02:32:14;25.30;21.70
6672;DHT22;3372;48.690;12.362;2022-07-23T02:34:40;25.00;21.20
6672;DHT22;3372;48.690;12.362;2022-07-23T02:37:05;25.00;21.30
6672;DHT22;3372;48.690;12.362;2022-07-23T02:39:31;24.80;20.70
6672;DHT22;3372;48.690;12.362;2022-07-23T02:41:57;24.80;20.40
6672;DHT22;3372;48.690;12.362;2022-07-23T02:44:22;24.70;20.00
6672;DHT22;3372;48.690;12.362;2022-07-23T02:46:48;24.60;19.80
6672;DHT22;3372;48.690;12.362;2022-07-23T02:49:13;24.70;19.60
6672;DHT22;3372;48.690;12.362;2022-07-23T02:51:39;24.70;19.50
6672;DHT22;3372;48.690;12.362;2022-07-23T02:54:04;24.50;19.40
6672;DHT22;3372;48.690;12.362;2022-07-23T02:56:30;24.50;19.00
6672;DHT22;3372;48.690;12.362;2022-07-23T02:58:55;24.50;18.90
6672;DHT22;3372;48.690;12.362;2022-07-23T03:01:21;24.50;18.70
6672;DHT22;3372;48.690;12.362;2022-07-23T03:03:47;24.40;18.90
6672;DHT22;3372;48.690;12.362;2022-07-23T03:06:13;24.60;19.00
6672;DHT22;3372;48.690;12.362;2022-07-23T03:08:38;24.50;19.80
6672;DHT22;3372;48.690;12.362;2022-07-23T03:11:04;24.00;21.40
6672;DHT22;3372;48.690;12.362;2022-07-23T03:13:33;23.90;21.70
6672;DHT22;3372;48.690;12.362;2022-07-23T03:15:58;23.40;23.00
6672;DHT22;3372;48.690;12.362;2022-07-23T03:18:24;23.40;23.00
6672;DHT22;3372;48.690;12.362;2022-07-23T03:20:49;23.40;23.00
6672;DHT22;3372;48.690;12.362;2022-07-23T03:23:16;23.20;23.50
6672;DHT22;3372;48.690;12.362;2022-07-23T03:25:41;23.50;23.00
6672;DHT22;3372;48.690;12.362;2022-07-23T03:28:07;23.40;23.60
6672;DHT22;3372;48.690;12.362;2022-07-23T03:30:32;23.40;23.40
6672;DHT22;3372;48.690;12.362;2022-07-23T03:32:58;23.30;23.00
6672;DHT22;3372;48.690;12.362;2022-07-23T03:35:24;23.50;23.10
6672;DHT22;3372;48.690;12.362;2022-07-23T03:37:49;23.60;23.40
6672;DHT22;3372;48.690;12.362;2022-07-23T03:40:15;23.50;23.00
6672;DHT22;3372;48.690;12.362;2022-07-23T03:42:40;23.60;23.00
6672;DHT22;3372;48.690;12.362;2022-07-23T03:45:07;23.70;22.70
6672;DHT22;3372;48.690;12.362;2022-07-23T03:47:33;23.70;22.60
6672;DHT22;3372;48.690;12.362;2022-07-23T03:49:59;23.70;22.20
6672;DHT22;3372;48.690;12.362;2022-07-23T03:52:24;23.70;22.50
6672;DHT22;3372;48.690;12.362;2022-07-23T03:54:50;23.70;23.60
6672;DHT22;3372;48.690;12.362;2022-07-23T03:57:15;23.70;23.10
6672;DHT22;3372;48.690;12.362;2022-07-23T03:59:41;23.80;23.00
6672;DHT22;3372;48.690;12.362;2022-07-23T04:02:06;23.80;22.60
6672;DHT22;3372;48.690;12.362;2022-07-23T04:04:32;23.80;23.20
6672;DHT22;3372;48.690;12.362;2022-07-23T04:06:57;23.80;23.20
6672;DHT22;3372;48.690;12.362;2022-07-23T04:09:23;23.80;22.20
6672;DHT22;3372;48.690;12.362;2022-07-23T04:11:48;23.80;23.20
6672;DHT22;3372;48.690;12.362;2022-07-23T04:14:14;23.80;23.20
6672;DHT22;3372;48.690;12.362;2022-07-23T04:16:40;23.80;23.30
6672;DHT22;3372;48.690;12.362;2022-07-23T04:19:05;23.90;23.60
6672;DHT22;3372;48.690;12.362;2022-07-23T04:21:31;23.80;25.80
6672;DHT22;3372;48.690;12.362;2022-07-23T04:23:57;23.70;26.20
6672;DHT22;3372;48.690;12.362;2022-07-23T04:26:22;23.70;24.10
6672;DHT22;3372;48.690;12.362;2022-07-23T04:28:48;23.60;24.00
6672;DHT22;3372;48.690;12.362;2022-07-23T04:31:13;23.70;25.40
6672;DHT22;3372;48.690;12.362;2022-07-23T04:33:39;23.50;25.70
6672;DHT22;3372;48.690;12.362;2022-07-23T04:36:05;23.50;25.50
6672;DHT22;3372;48.690;12.362;2022-07-23T04:38:30;23.50;25.60
6672;DHT22;3372;48.690;12.362;2022-07-23T04:40:58;23.50;25.30
6672;DHT22;3372;48.690;12.362;2022-07-23T04:43:23;23.50;26.10
6672;DHT22;3372;48.690;12.362;2022-07-23T04:45:49;23.40;26.70
6672;DHT22;3372;48.690;12.362;2022-07-23T04:48:14;23.40;27.20
6672;DHT22;3372;48.690;12.362;2022-07-23T04:50:40;23.40;26.70
6672;DHT22;3372;48.690;12.362;2022-07-23T04:53:05;23.50;26.40
6672;DHT22;3372;48.690;12.362;2022-07-23T04:55:31;23.50;26.20
6672;DHT22;3372;48.690;12.362;2022-07-23T04:57:57;23.50;27.80
6672;DHT22;3372;48.690;12.362;2022-07-23T05:00:22;23.50;26.60
6672;DHT22;3372;48.690;12.362;2022-07-23T05:02:48;23.60;25.90
6672;DHT22;3372;48.690;12.362;2022-07-23T05:05:13;23.60;25.80
6672;DHT22;3372;48.690;12.362;2022-07-23T05:07:39;23.70;25.60
6672;DHT22;3372;48.690;12.362;2022-07-23T05:10:05;23.70;26.30
6672;DHT22;3372;48.690;12.362;2022-07-23T05:12:31;23.70;27.10
6672;DHT22;3372;48.690;12.362;2022-07-23T05:14:58;23.70;27.40
6672;DHT22;3372;48.690;12.362;2022-07-23T05:17:23;23.70;27.60
6672;DHT22;3372;48.690;12.362;2022-07-23T05:19:49;23.70;27.50
6672;DHT22;3372;48.690;12.362;2022-07-23T05:22:14;23.80;27.40
6672;DHT22;3372;48.690;12.362;2022-07-23T05:24:40;23.80;27.50
6672;DHT22;3372;48.690;12.362;2022-07-23T05:27:06;23.70;28.20
6672;DHT22;3372;48.690;12.362;2022-07-23T05:29:31;23.70;27.70
6672;DHT22;3372;48.690;12.362;2022-07-23T05:31:57;23.80;27.50
6672;DHT22;3372;48.690;12.362;2022-07-23T05:34:22;23.70;27.40
6672;DHT22;3372;48.690;12.362;2022-07-23T05:36:48;23.70;27.60
6672;DHT22;3372;48.690;12.362;2022-07-23T05:39:14;23.60;27.60
6672;DHT22;3372;48.690;12.362;2022-07-23T05:41:39;23.60;27.50
6672;DHT22;3372;48.690;12.362;2022-07-23T05:44:05;23.60;27.40
6672;DHT22;3372;48.690;12.362;2022-07-23T05:46:30;23.60;27.00
6672;DHT22;3372;48.690;12.362;2022-07-23T05:48:56;23.60;27.50
6672;DHT22;3372;48.690;12.362;2022-07-23T05:51:23;23.60;27.90
6672;DHT22;3372;48.690;12.362;2022-07-23T05:53:49;23.70;27.50
6672;DHT22;3372;48.690;12.362;2022-07-23T05:56:16;23.70;27.80
6672;DHT22;3372;48.690;12.362;2022-07-23T05:58:42;23.80;27.90
6672;DHT22;3372;48.690;12.362;2022-07-23T06:01:07;23.90;26.80
6672;DHT22;3372;48.690;12.362;2022-07-23T06:03:33;23.60;27.90
6672;DHT22;3372;48.690;12.362;2022-07-23T06:05:58;23.80;26.90
6672;DHT22;3372;48.690;12.362;2022-07-23T06:08:24;23.70;26.90
6672;DHT22;3372;48.690;12.362;2022-07-23T06:10:49;23.80;26.50
6672;DHT22;3372;48.690;12.362;2022-07-23T06:13:20;23.70;26.60
6672;DHT22;3372;48.690;12.362;2022-07-23T06:15:45;23.80;26.70
6672;DHT22;3372;48.690;12.362;2022-07-23T06:18:11;23.80;26.30
6672;DHT22;3372;48.690;12.362;2022-07-23T06:20:37;24.30;25.90
6672;DHT22;3372;48.690;12.362;2022-07-23T06:23:03;24.70;25.30
6672;DHT22;3372;48.690;12.362;2022-07-23T06:25:28;24.90;25.40
6672;DHT22;3372;48.690;12.362;2022-07-23T06:27:54;24.90;25.80
6672;DHT22;3372;48.690;12.362;2022-07-23T06:30:20;24.80;24.80
6672;DHT22;3372;48.690;12.362;2022-07-23T06:32:46;24.80;25.00
6672;DHT22;3372;48.690;12.362;2022-07-23T06:35:12;24.70;24.80
6672;DHT22;3372;48.690;12.362;2022-07-23T06:37:37;24.70;24.40
6672;DHT22;3372;48.690;12.362;2022-07-23T06:40:04;24.80;24.50
6672;DHT22;3372;48.690;12.362;2022-07-23T06:42:29;24.90;24.00
6672;DHT22;3372;48.690;12.362;2022-07-23T06:44:55;24.90;24.40
6672;DHT22;3372;48.690;12.362;2022-07-23T06:47:21;24.80;24.20
6672;DHT22;3372;48.690;12.362;2022-07-23T06:49:46;25.20;24.00
6672;DHT22;3372;48.690;12.362;2022-07-23T06:52:12;25.10;23.90
6672;DHT22;3372;48.690;12.362;2022-07-23T06:54:37;25.30;22.50
6672;DHT22;3372;48.690;12.362;2022-07-23T06:57:03;25.30;22.60
6672;DHT22;3372;48.690;12.362;2022-07-23T06:59:29;25.50;22.00
6672;DHT22;3372;48.690;12.362;2022-07-23T07:01:54;25.50;21.50
6672;DHT22;3372;48.690;12.362;2022-07-23T07:04:20;25.40;22.00
6672;DHT22;3372;48.690;12.362;2022-07-23T07:06:45;25.40;22.00
6672;DHT22;3372;48.690;12.362;2022-07-23T07:09:11;25.60;21.90
6672;DHT22;3372;48.690;12.362;2022-07-23T07:11:37;25.70;21.90
6672;DHT22;3372;48.690;12.362;2022-07-23T07:14:02;25.60;22.90
6672;DHT22;3372;48.690;12.362;2022-07-23T07:16:29;26.00;23.00
6672;DHT22;3372;48.690;12.362;2022-07-23T07:18:55;26.30;21.70
6672;DHT22;3372;48.690;12.362;2022-07-23T07:21:20;26.40;20.90
6672;DHT22;3372;48.690;12.362;2022-07-23T07:23:46;26.40;20.60
6672;DHT22;3372;48.690;12.362;2022-07-23T07:26:11;26.30;20.60
6672;DHT22;3372;48.690;12.362;2022-07-23T07:28:37;26.20;20.60
6672;DHT22;3372;48.690;12.362;2022-07-23T07:31:02;26.10;20.30
6672;DHT22;3372;48.690;12.362;2022-07-23T07:33:28;26.20;20.40
6672;DHT22;3372;48.690;12.362;2022-07-23T07:35:54;26.60;20.60
6672;DHT22;3372;48.690;12.362;2022-07-23T07:38:20;26.70;18.50
6672;DHT22;3372;48.690;12.362;2022-07-23T07:40:45;26.60;17.90
6672;DHT22;3372;48.690;12.362;2022-07-23T07:43:11;26.60;19.40
6672;DHT22;3372;48.690;12.362;2022-07-23T07:45:36;26.60;18.50
6672;DHT22;3372;48.690;12.362;2022-07-23T07:48:02;26.70;19.70
6672;DHT22;3372;48.690;12.362;2022-07-23T07:50:28;26.60;18.10
6672;DHT22;3372;48.690;12.362;2022-07-23T07:52:53;26.80;19.20
6672;DHT22;3372;48.690;12.362;2022-07-23T07:55:19;27.30;17.60
6672;DHT22;3372;48.690;12.362;2022-07-23T07:57:45;27.20;17.70
6672;DHT22;3372;48.690;12.362;2022-07-23T08:00:11;27.00;17.90
6672;DHT22;3372;48.690;12.362;2022-07-23T08:02:45;27.00;18.20
6672;DHT22;3372;48.690;12.362;2022-07-23T08:05:10;26.80;17.20
6672;DHT22;3372;48.690;12.362;2022-07-23T08:07:36;26.60;18.10
6672;DHT22;3372;48.690;12.362;2022-07-23T08:10:04;26.50;17.10
6672;DHT22;3372;48.690;12.362;2022-07-23T08:12:41;26.50;18.40
6672;DHT22;3372;48.690;12.362;2022-07-23T08:15:08;26.70;17.30
6672;DHT22;3372;48.690;12.362;2022-07-23T08:17:34;27.00;18.40
6672;DHT22;3372;48.690;12.362;2022-07-23T08:20:00;27.30;16.80
6672;DHT22;3372;48.690;12.362;2022-07-23T08:22:27;27.00;15.70
6672;DHT22;3372;48.690;12.362;2022-07-23T08:25:06;26.90;16.90
6672;DHT22;3372;48.690;12.362;2022-07-23T08:27:31;27.10;17.10
6672;DHT22;3372;48.690;12.362;2022-07-23T08:29:57;27.10;17.30
6672;DHT22;3372;48.690;12.362;2022-07-23T08:32:22;27.10;17.00
6672;DHT22;3372;48.690;12.362;2022-07-23T08:34:48;26.70;15.40
6672;DHT22;3372;48.690;12.362;2022-07-23T08:37:13;26.80;17.30
6672;DHT22;3372;48.690;12.362;2022-07-23T08:39:39;27.00;16.00
6672;DHT22;3372;48.690;12.362;2022-07-23T08:42:05;27.10;16.50
6672;DHT22;3372;48.690;12.362;2022-07-23T08:44:31;27.10;17.00
6672;DHT22;3372;48.690;12.362;2022-07-23T08:46:58;27.20;16.40
6672;DHT22;3372;48.690;12.362;2022-07-23T08:49:24;27.30;15.50
6672;DHT22;3372;48.690;12.362;2022-07-23T08:51:50;27.30;16.00
6672;DHT22;3372;48.690;12.362;2022-07-23T08:54:16;27.50;16.40
6672;DHT22;3372;48.690;12.362;2022-07-23T08:56:41;27.60;16.40
6672;DHT22;3372;48.690;12.362;2022-07-23T08:59:07;27.50;16.60
6672;DHT22;3372;48.690;12.362;2022-07-23T09:01:32;27.50;16.50
6672;DHT22;3372;48.690;12.362;2022-07-23T09:03:59;27.40;17.20
6672;DHT22;3372;48.690;12.362;2022-07-23T09:06:24;27.30;15.70
6672;DHT22;3372;48.690;12.362;2022-07-23T09:08:52;27.30;16.20
6672;DHT22;3372;48.690;12.362;2022-07-23T09:11:18;27.30;16.40
6672;DHT22;3372;48.690;12.362;2022-07-23T09:13:52;27.40;16.00
6672;DHT22;3372;48.690;12.362;2022-07-23T09:16:26;27.40;16.20
6672;DHT22;3372;48.690;12.362;2022-07-23T09:18:56;27.40;16.10
6672;DHT22;3372;48.690;12.362;2022-07-23T09:21:30;27.50;16.30
6672;DHT22;3372;48.690;12.362;2022-07-23T09:26:28;27.10;17.50
6672;DHT22;3372;48.690;12.362;2022-07-23T09:29:23;27.20;17.50
6672;DHT22;3372;48.690;12.362;2022-07-23T09:36:42;26.90;17.50
6672;DHT22;3372;48.690;12.362;2022-07-23T09:39:09;27.00;17.60
6672;DHT22;3372;48.690;12.362;2022-07-23T09:41:41;26.80;18.10
6672;DHT22;3372;48.690;12.362;2022-07-23T09:44:19;26.70;19.00
6672;DHT22;3372;48.690;12.362;2022-07-23T09:46:46;26.60;19.20
6672;DHT22;3372;48.690;12.362;2022-07-23T09:49:17;26.50;19.10
6672;DHT22;3372;48.690;12.362;2022-07-23T09:51:45;26.70;20.20
6672;DHT22;3372;48.690;12.362;2022-07-23T09:54:23;26.80;20.40
6672;DHT22;3372;48.690;12.362;2022-07-23T09:56:55;26.90;21.50
6672;DHT22;3372;48.690;12.362;2022-07-23T09:59:47;26.90;20.70
6672;DHT22;3372;48.690;12.362;2022-07-23T10:02:13;26.80;21.70
6672;DHT22;3372;48.690;12.362;2022-07-23T10:04:40;26.80;21.60
6672;DHT22;3372;48.690;12.362;2022-07-23T10:07:08;26.80;21.10
6672;DHT22;3372;48.690;12.362;2022-07-23T10:09:40;26.70;21.40
6672;DHT22;3372;48.690;12.362;2022-07-23T10:12:11;26.70;22.40
6672;DHT22;3372;48.690;12.362;2022-07-23T10:15:00;26.90;22.10
6672;DHT22;3372;48.690;12.362;2022-07-23T10:17:28;27.10;22.20
6672;DHT22;3372;48.690;12.362;2022-07-23T10:19:54;27.10;21.40
6672;DHT22;3372;48.690;12.362;2022-07-23T10:22:23;27.00;21.40
6672;DHT22;3372;48.690;12.362;2022-07-23T10:30:37;27.10;20.40
6672;DHT22;3372;48.690;12.362;2022-07-23T10:35:50;27.20;20.10
6672;DHT22;3372;48.690;12.362;2022-07-23T10:41:33;27.60;19.20
6672;DHT22;3372;48.690;12.362;2022-07-23T10:44:09;27.90;18.70
6672;DHT22;3372;48.690;12.362;2022-07-23T10:46:36;27.90;17.30
6672;DHT22;3372;48.690;12.362;2022-07-23T10:49:28;27.80;18.80
6672;DHT22;3372;48.690;12.362;2022-07-23T10:54:42;28.40;17.90
6672;DHT22;3372;48.690;12.362;2022-07-23T10:57:09;28.50;17.10
6672;DHT22;3372;48.690;12.362;2022-07-23T11:02:29;28.40;15.80
6672;DHT22;3372;48.690;12.362;2022-07-23T11:05:09;28.70;16.40
6672;DHT22;3372;48.690;12.362;2022-07-23T11:08:19;28.70;16.30
6672;DHT22;3372;48.690;12.362;2022-07-23T11:24:18;29.00;13.00
6672;DHT22;3372;48.690;12.362;2022-07-23T11:26:50;29.10;15.20
6672;DHT22;3372;48.690;12.362;2022-07-23T11:32:07;29.20;15.00
6672;DHT22;3372;48.690;12.362;2022-07-23T11:34:34;29.30;14.30
6672;DHT22;3372;48.690;12.362;2022-07-23T11:37:02;29.30;15.30
6672;DHT22;3372;48.690;12.362;2022-07-23T11:39:29;28.90;14.50
6672;DHT22;3372;48.690;12.362;2022-07-23T11:41:56;29.10;15.60
6672;DHT22;3372;48.690;12.362;2022-07-23T11:44:29;29.00;15.30
6672;DHT22;3372;48.690;12.362;2022-07-23T11:47:10;29.00;13.90
6672;DHT22;3372;48.690;12.362;2022-07-23T11:49:59;28.70;12.80
6672;DHT22;3372;48.690;12.362;2022-07-23T11:52:26;28.90;12.10
6672;DHT22;3372;48.690;12.362;2022-07-23T11:55:05;29.10;12.10
6672;DHT22;3372;48.690;12.362;2022-07-23T11:57:37;29.20;11.50
6672;DHT22;3372;48.690;12.362;2022-07-23T12:00:13;29.20;11.40
6672;DHT22;3372;48.690;12.362;2022-07-23T12:02:45;29.20;9.90
6672;DHT22;3372;48.690;12.362;2022-07-23T12:05:16;29.30;10.20
6672;DHT22;3372;48.690;12.362;2022-07-23T12:07:44;29.50;10.70
6672;DHT22;3372;48.690;12.362;2022-07-23T12:10:21;29.20;9.00
6672;DHT22;3372;48.690;12.362;2022-07-23T12:12:58;29.30;11.10
6672;DHT22;3372;48.690;12.362;2022-07-23T12:15:35;29.40;11.10
6672;DHT22;3372;48.690;12.362;2022-07-23T12:18:05;29.50;9.60
6672;DHT22;3372;48.690;12.362;2022-07-23T12:21:05;29.40;10.00
6672;DHT22;3372;48.690;12.362;2022-07-23T12:23:26;29.50;9.20
6672;DHT22;3372;48.690;12.362;2022-07-23T12:25:53;29.60;10.50
6672;DHT22;3372;48.690;12.362;2022-07-23T12:28:26;29.70;9.90
6672;DHT22;3372;48.690;12.362;2022-07-23T12:30:53;29.80;9.90
6672;DHT22;3372;48.690;12.362;2022-07-23T12:33:43;29.70;9.90
6672;DHT22;3372;48.690;12.362;2022-07-23T12:36:10;29.80;9.80
6672;DHT22;3372;48.690;12.362;2022-07-23T12:38:57;29.70;9.50
6672;DHT22;3372;48.690;12.362;2022-07-23T12:41:22;29.60;9.50
6672;DHT22;3372;48.690;12.362;2022-07-23T12:43:48;29.50;10.40
6672;DHT22;3372;48.690;12.362;2022-07-23T12:48:53;29.60;9.60
6672;DHT22;3372;48.690;12.362;2022-07-23T12:53:51;29.80;10.20
6672;DHT22;3372;48.690;12.362;2022-07-23T12:58:51;30.00;7.50
6672;DHT22;3372;48.690;12.362;2022-07-23T13:03:59;30.10;8.60
6672;DHT22;3372;48.690;12.362;2022-07-23T13:06:26;30.20;9.00
6672;DHT22;3372;48.690;12.362;2022-07-23T13:08:52;30.20;8.70
6672;DHT22;3372;48.690;12.362;2022-07-23T13:11:18;30.10;8.60
6672;DHT22;3372;48.690;12.362;2022-07-23T13:13:44;30.20;9.20
6672;DHT22;3372;48.690;12.362;2022-07-23T13:16:09;30.30;9.30
6672;DHT22;3372;48.690;12.362;2022-07-23T13:18:35;30.10;8.90
6672;DHT22;3372;48.690;12.362;2022-07-23T13:21:01;30.10;9.50
6672;DHT22;3372;48.690;12.362;2022-07-23T13:23:27;30.10;8.10
6672;DHT22;3372;48.690;12.362;2022-07-23T13:25:53;30.20;9.60
6672;DHT22;3372;48.690;12.362;2022-07-23T13:28:19;30.50;9.00
6672;DHT22;3372;48.690;12.362;2022-07-23T13:30:46;30.60;8.90
6672;DHT22;3372;48.690;12.362;2022-07-23T13:33:13;30.60;9.40
6672;DHT22;3372;48.690;12.362;2022-07-23T13:35:38;30.50;9.50
6672;DHT22;3372;48.690;12.362;2022-07-23T13:38:05;30.40;9.40
6672;DHT22;3372;48.690;12.362;2022-07-23T13:40:34;30.40;9.40
6672;DHT22;3372;48.690;12.362;2022-07-23T13:42:59;30.50;9.60
6672;DHT22;3372;48.690;12.362;2022-07-23T13:45:25;30.40;9.50
6672;DHT22;3372;48.690;12.362;2022-07-23T13:47:52;30.50;9.80
6672;DHT22;3372;48.690;12.362;2022-07-23T13:50:17;30.50;10.00
6672;DHT22;3372;48.690;12.362;2022-07-23T13:52:43;30.20;9.90
6672;DHT22;3372;48.690;12.362;2022-07-23T13:55:09;30.20;10.40
6672;DHT22;3372;48.690;12.362;2022-07-23T13:57:35;30.20;10.10
6672;DHT22;3372;48.690;12.362;2022-07-23T14:00:01;30.30;10.50
6672;DHT22;3372;48.690;12.362;2022-07-23T14:02:29;30.30;10.50
6672;DHT22;3372;48.690;12.362;2022-07-23T14:04:54;30.20;8.40
6672;DHT22;3372;48.690;12.362;2022-07-23T14:07:20;30.10;9.20
6672;DHT22;3372;48.690;12.362;2022-07-23T14:09:45;30.20;9.70
6672;DHT22;3372;48.690;12.362;2022-07-23T14:12:11;30.20;8.80
6672;DHT22;3372;48.690;12.362;2022-07-23T14:14:37;30.20;9.20
6672;DHT22;3372;48.690;12.362;2022-07-23T14:17:02;30.30;9.70
6672;DHT22;3372;48.690;12.362;2022-07-23T14:19:28;30.40;8.60
6672;DHT22;3372;48.690;12.362;2022-07-23T14:21:55;30.50;8.90
6672;DHT22;3372;48.690;12.362;2022-07-23T14:24:20;30.50;9.10
6672;DHT22;3372;48.690;12.362;2022-07-23T14:26:46;30.50;9.90
6672;DHT22;3372;48.690;12.362;2022-07-23T14:29:12;30.20;10.20
6672;DHT22;3372;48.690;12.362;2022-07-23T14:31:38;30.30;10.50
6672;DHT22;3372;48.690;12.362;2022-07-23T14:34:03;30.20;9.60
6672;DHT22;3372;48.690;12.362;2022-07-23T14:36:29;30.10;9.10
6672;DHT22;3372;48.690;12.362;2022-07-23T14:38:55;30.10;9.70
6672;DHT22;3372;48.690;12.362;2022-07-23T14:41:20;30.20;10.00
6672;DHT22;3372;48.690;12.362;2022-07-23T14:43:46;30.10;9.50
6672;DHT22;3372;48.690;12.362;2022-07-23T14:46:12;30.00;9.20
6672;DHT22;3372;48.690;12.362;2022-07-23T14:48:38;29.70;9.10
6672;DHT22;3372;48.690;12.362;2022-07-23T14:51:04;29.50;9.80
6672;DHT22;3372;48.690;12.362;2022-07-23T14:53:30;29.40;10.30
6672;DHT22;3372;48.690;12.362;2022-07-23T14:55:56;29.20;10.60
6672;DHT22;3372;48.690;12.362;2022-07-23T14:58:23;29.40;10.60
6672;DHT22;3372;48.690;12.362;2022-07-23T15:00:49;29.40;10.40
6672;DHT22;3372;48.690;12.362;2022-07-23T15:03:15;29.40;10.10
6672;DHT22;3372;48.690;12.362;2022-07-23T15:05:40;29.20;9.80
6672;DHT22;3372;48.690;12.362;2022-07-23T15:08:06;29.00;10.40
6672;DHT22;3372;48.690;12.362;2022-07-23T15:10:32;28.80;10.20
6672;DHT22;3372;48.690;12.362;2022-07-23T15:12:57;28.70;10.20
6672;DHT22;3372;48.690;12.362;2022-07-23T15:15:23;28.50;10.60
6672;DHT22;3372;48.690;12.362;2022-07-23T15:17:48;28.60;10.90
6672;DHT22;3372;48.690;12.362;2022-07-23T15:20:14;28.50;10.00
6672;DHT22;3372;48.690;12.362;2022-07-23T15:22:40;28.50;11.10
6672;DHT22;3372;48.690;12.362;2022-07-23T15:25:06;28.40;12.60
6672;DHT22;3372;48.690;12.362;2022-07-23T15:27:32;28.00;16.40
6672;DHT22;3372;48.690;12.362;2022-07-23T15:29:57;26.50;21.40
6672;DHT22;3372;48.690;12.362;2022-07-23T15:32:23;26.00;24.60
6672;DHT22;3372;48.690;12.362;2022-07-23T15:34:52;26.10;24.10
6672;DHT22;3372;48.690;12.362;2022-07-23T15:37:17;26.20;24.70
6672;DHT22;3372;48.690;12.362;2022-07-23T15:39:43;26.40;24.50
6672;DHT22;3372;48.690;12.362;2022-07-23T15:42:09;26.50;22.90
6672;DHT22;3372;48.690;12.362;2022-07-23T15:44:34;26.60;22.60
6672;DHT22;3372;48.690;12.362;2022-07-23T15:47:00;26.60;22.10
6672;DHT22;3372;48.690;12.362;2022-07-23T15:49:27;26.50;22.70
6672;DHT22;3372;48.690;12.362;2022-07-23T15:51:53;26.50;23.80
6672;DHT22;3372;48.690;12.362;2022-07-23T15:54:20;26.40;24.60
6672;DHT22;3372;48.690;12.362;2022-07-23T15:56:46;26.70;24.00
6672;DHT22;3372;48.690;12.362;2022-07-23T15:59:13;26.80;25.00
6672;DHT22;3372;48.690;12.362;2022-07-23T16:01:38;26.90;25.10
6672;DHT22;3372;48.690;12.362;2022-07-23T16:04:04;27.10;28.10
6672;DHT22;3372;48.690;12.362;2022-07-23T16:06:32;27.00;26.20
6672;DHT22;3372;48.690;12.362;2022-07-23T16:08:57;27.20;25.00
6672;DHT22;3372;48.690;12.362;2022-07-23T16:11:23;27.30;26.50
6672;DHT22;3372;48.690;12.362;2022-07-23T16:13:48;27.30;26.40
6672;DHT22;3372;48.690;12.362;2022-07-23T16:16:14;27.20;25.30
6672;DHT22;3372;48.690;12.362;2022-07-23T16:18:40;27.30;26.60
6672;DHT22;3372;48.690;12.362;2022-07-23T16:21:05;27.20;26.30
6672;DHT22;3372;48.690;12.362;2022-07-23T16:23:31;27.00;26.80
6672;DHT22;3372;48.690;12.362;2022-07-23T16:25:58;27.10;25.90
6672;DHT22;3372;48.690;12.362;2022-07-23T16:28:24;27.10;26.10
6672;DHT22;3372;48.690;12.362;2022-07-23T16:30:49;27.20;26.70
6672;DHT22;3372;48.690;12.362;2022-07-23T16:33:15;26.90;27.30
6672;DHT22;3372;48.690;12.362;2022-07-23T16:35:41;26.90;26.60
6672;DHT22;3372;48.690;12.362;2022-07-23T16:38:07;26.90;26.10